Time;durP1;ratioP1;P1;durP2;ratioP2;P2;SDS_P1;SDS_P2;PMS_P1;PMS_P2;Temp;Humidity;BMP_temperature;BMP_pressure;BME280_temperature;BME280_humidity;BME280_pressure;Samples;Min_cycle;Max_cycle;Signal;HPM_P1;HPM_P2
2023/07/15 00:01:20;;;;;;;7.13;3.85;;;;;;;20.82;62.20;100438.97;6112546;19;20019;-74
2023/07/15 00:03:25;;;;;;;6.80;3.22;;;;;;;20.78;62.70;100443.75;6117836;19;20010;-71
2023/07/15 00:05:35;;;;;;;8.40;3.28;;;;;;;20.82;62.60;100438.97;6117457;19;20498;-73
2023/07/15 00:07:40;;;;;;;5.97;3.20;;;;;;;20.80;62.25;100443.59;6115800;19;20581;-72
2023/07/15 00:09:46;;;;;;;6.25;3.15;;;;;;;20.77;63.29;100462.56;6117632;19;20459;-72
2023/07/15 00:11:51;;;;;;;6.07;3.30;;;;;;;20.81;62.35;100466.66;6115835;19;20017;-72
2023/07/15 00:14:00;;;;;;;7.40;3.40;;;;;;;20.79;63.01;100465.94;6116730;19;20007;-72
2023/07/15 00:16:08;;;;;;;7.28;3.28;;;;;;;20.78;63.05;100474.94;6117647;19;20010;-73
2023/07/15 00:18:14;;;;;;;6.57;3.35;;;;;;;20.78;62.70;100477.63;6113844;19;20352;-71
2023/07/15 00:20:19;;;;;;;8.70;3.67;;;;;;;20.83;62.09;100475.38;6114848;19;20039;-73
2023/07/15 00:22:24;;;;;;;7.13;3.35;;;;;;;20.91;61.51;100462.19;6116311;19;20054;-73
2023/07/15 00:24:30;;;;;;;5.95;3.20;;;;;;;20.96;60.85;100459.94;6115946;19;20018;-72
2023/07/15 00:26:35;;;;;;;6.20;3.10;;;;;;;20.98;60.21;100451.78;6118222;19;20035;-74
2023/07/15 00:28:37;;;;;;;6.38;2.95;;;;;;;21.08;60.08;100454.47;6118160;19;20025;-74
2023/07/15 00:30:48;;;;;;;5.93;3.30;;;;;;;21.08;60.09;100449.97;6117460;19;20015;-74
2023/07/15 00:32:55;;;;;;;7.97;3.70;;;;;;;21.17;60.04;100458.94;6118311;19;20006;-74
2023/07/15 00:35:02;;;;;;;7.35;3.42;;;;;;;21.16;60.20;100462.63;6118197;19;20047;-72
2023/07/15 00:37:07;;;;;;;6.30;3.22;;;;;;;21.15;59.58;100467.13;6116871;19;20003;-73
2023/07/15 00:39:13;;;;;;;4.85;3.10;;;;;;;21.12;60.18;100479.94;6118623;19;20055;-73
2023/07/15 00:41:21;;;;;;;7.82;3.75;;;;;;;21.09;60.34;100481.06;6118162;19;20011;-73
2023/07/15 00:43:59;;;;;;;5.88;3.28;;;;;;;21.07;61.08;100496.38;6119172;19;20522;-73
2023/07/15 00:46:41;;;;;;;5.95;3.30;;;;;;;20.98;61.00;100489.16;6118311;19;20011;-73
2023/07/15 00:48:54;;;;;;;5.55;3.40;;;;;;;20.94;61.71;100491.28;6113631;19;20019;-73
2023/07/15 00:51:00;;;;;;;6.82;3.50;;;;;;;20.87;62.24;100498.16;6118258;19;20021;-73
2023/07/15 00:53:07;;;;;;;11.02;3.63;;;;;;;20.83;62.77;100507.44;6118044;19;20161;-73
2023/07/15 00:55:15;;;;;;;6.10;3.33;;;;;;;20.82;62.83;100511.06;6117153;19;20148;-74
2023/07/15 00:57:21;;;;;;;6.90;3.42;;;;;;;20.82;63.60;100514.56;6116243;19;20118;-74
2023/07/15 00:59:26;;;;;;;6.90;3.58;;;;;;;20.77;64.42;100505.28;6116146;19;20042;-73
2023/07/15 01:01:35;;;;;;;6.68;3.35;;;;;;;20.76;65.01;100499.09;6115682;19;20015;-76
2023/07/15 01:03:44;;;;;;;5.72;3.30;;;;;;;20.67;65.60;100499.06;6115530;19;20010;-72
2023/07/15 01:05:51;;;;;;;6.90;3.70;;;;;;;20.61;65.91;100495.13;6114697;19;20478;-73
2023/07/15 01:07:56;;;;;;;6.97;3.33;;;;;;;20.52;66.65;100499.41;6116109;19;20364;-73
2023/07/15 01:10:01;;;;;;;7.15;3.35;;;;;;;20.42;67.23;100500.38;6114406;19;20029;-73
2023/07/15 01:12:07;;;;;;;7.65;3.25;;;;;;;20.33;67.34;100502.03;6114480;19;20443;-73
2023/07/15 01:14:14;;;;;;;7.05;3.47;;;;;;;20.28;67.82;100490.91;6090558;19;20050;-71
2023/07/15 01:16:19;;;;;;;8.50;3.70;;;;;;;20.22;68.22;100502.94;6115227;19;20015;-71
2023/07/15 01:18:29;;;;;;;6.68;3.67;;;;;;;20.18;68.50;100498.84;6112952;19;20393;-72
2023/07/15 01:20:34;;;;;;;6.88;3.47;;;;;;;20.10;69.47;100509.34;6114911;19;20014;-72
2023/07/15 01:22:43;;;;;;;6.78;3.22;;;;;;;20.04;68.97;100513.38;6114080;19;20464;-71
2023/07/15 01:24:48;;;;;;;7.00;4.00;;;;;;;19.99;69.37;100512.09;6114318;19;20326;-71
2023/07/15 01:26:58;;;;;;;5.63;3.35;;;;;;;19.92;69.85;100499.25;6114353;19;20026;-73
2023/07/15 01:29:03;;;;;;;8.52;3.30;;;;;;;19.87;70.10;100500.63;6114141;19;20356;-73
2023/07/15 01:31:14;;;;;;;7.50;3.60;;;;;;;19.80;71.26;100497.66;6114287;19;20010;-72
2023/07/15 01:33:19;;;;;;;6.03;3.30;;;;;;;19.76;72.05;100504.19;6114459;19;20104;-73
2023/07/15 01:35:24;;;;;;;6.88;3.50;;;;;;;19.74;71.97;100495.47;6113257;19;20018;-72
2023/07/15 01:37:29;;;;;;;6.78;3.53;;;;;;;19.71;71.81;100496.59;6112953;19;20019;-72
2023/07/15 01:39:40;;;;;;;7.78;3.70;;;;;;;19.68;71.79;100496.84;6112294;19;20011;-72
2023/07/15 01:41:45;;;;;;;8.18;3.60;;;;;;;19.69;72.06;100508.34;6114705;19;20017;-72
2023/07/15 01:43:50;;;;;;;8.30;3.38;;;;;;;19.70;72.19;100505.56;6112731;19;20031;-72
2023/07/15 01:45:57;;;;;;;6.93;3.30;;;;;;;19.71;72.41;100504.59;6113254;19;20019;-73
2023/07/15 01:48:11;;;;;;;6.65;3.85;;;;;;;19.70;72.60;100500.25;6112680;19;20475;-72
2023/07/15 01:50:17;;;;;;;6.97;3.50;;;;;;;19.68;72.90;100504.84;6111749;19;20089;-72
2023/07/15 01:52:25;;;;;;;8.70;3.88;;;;;;;19.68;72.58;100502.19;6113467;19;20015;-73
2023/07/15 01:54:33;;;;;;;7.13;3.45;;;;;;;19.66;72.68;100506.78;6114464;19;20030;-74
2023/07/15 01:56:41;;;;;;;7.07;2.88;;;;;;;19.67;72.87;100505.00;6112479;19;20018;-73
2023/07/15 01:58:44;;;;;;;5.82;2.97;;;;;;;19.76;73.55;100504.19;6111551;19;20015;-73
2023/07/15 02:00:49;;;;;;;5.68;2.90;;;;;;;19.85;74.34;100506.09;6113186;19;20490;-73
2023/07/15 02:02:54;;;;;;;5.85;2.75;;;;;;;19.95;74.61;100508.81;6113740;19;20098;-74
2023/07/15 02:05:03;;;;;;;4.95;2.45;;;;;;;20.08;74.84;100498.78;6112783;19;20018;-74
2023/07/15 02:07:09;;;;;;;5.50;2.95;;;;;;;20.16;75.86;100500.78;6111707;19;20014;-73
2023/07/15 02:09:15;;;;;;;4.97;2.45;;;;;;;20.35;76.04;100500.91;6112988;19;20077;-73
2023/07/15 02:11:20;;;;;;;4.53;2.08;;;;;;;20.46;76.37;100501.78;6113331;19;20412;-73
2023/07/15 02:13:28;;;;;;;4.03;2.08;;;;;;;20.54;76.59;100494.00;6113614;19;20499;-73
2023/07/15 02:15:33;;;;;;;4.82;2.20;;;;;;;20.55;76.51;100496.50;6111177;19;20038;-74
2023/07/15 02:17:39;;;;;;;4.55;2.33;;;;;;;20.59;76.57;100500.63;6113303;19;20003;-73
2023/07/15 02:19:47;;;;;;;3.38;2.35;;;;;;;20.56;76.99;100487.53;6112319;19;20640;-73
2023/07/15 02:21:52;;;;;;;3.20;2.20;;;;;;;20.55;76.92;100499.19;6112900;19;20014;-72
2023/07/15 02:23:59;;;;;;;4.15;2.30;;;;;;;20.60;76.79;100510.31;6112187;19;20006;-73
2023/07/15 02:26:04;;;;;;;4.50;2.20;;;;;;;20.59;76.42;100497.94;6111686;19;20093;-73
2023/07/15 02:28:10;;;;;;;6.18;2.70;;;;;;;20.63;76.40;100492.31;6111996;19;20006;-74
2023/07/15 02:30:19;;;;;;;5.30;2.80;;;;;;;20.63;76.44;100489.66;6109019;19;20037;-73
2023/07/15 02:32:41;;;;;;;6.43;2.30;;;;;;;20.57;76.62;100486.53;6112621;19;20018;-74
2023/07/15 02:34:46;;;;;;;4.47;2.60;;;;;;;20.61;76.57;100495.13;6113411;19;20002;-73
2023/07/15 02:36:52;;;;;;;6.70;3.03;;;;;;;20.56;76.97;100495.56;6112220;19;20028;-73
2023/07/15 02:38:57;;;;;;;8.02;2.97;;;;;;;20.55;76.88;100501.84;6100368;19;20018;-73
2023/07/15 02:41:03;;;;;;;7.82;2.60;;;;;;;20.49;77.27;100501.53;6113238;19;20021;-73
2023/07/15 02:43:11;;;;;;;5.28;2.35;;;;;;;20.47;77.07;100498.97;6111053;19;20014;-72
2023/07/15 02:45:22;;;;;;;5.28;2.60;;;;;;;20.45;77.12;100495.59;6113342;19;20022;-72
2023/07/15 02:47:29;;;;;;;9.05;3.65;;;;;;;20.36;77.59;100494.59;6111305;19;20014;-73
2023/07/15 02:49:35;;;;;;;4.80;2.58;;;;;;;20.38;77.45;100494.47;6112322;19;20015;-72
2023/07/15 02:51:40;;;;;;;8.10;3.38;;;;;;;20.39;77.37;100496.13;6112657;19;20070;-71
2023/07/15 02:53:46;;;;;;;7.15;3.17;;;;;;;20.32;77.77;100492.31;6111756;19;20082;-71
2023/07/15 02:55:53;;;;;;;5.05;2.65;;;;;;;20.33;78.05;100488.69;6111354;19;20066;-72
2023/07/15 02:57:58;;;;;;;5.95;3.10;;;;;;;20.21;78.44;100493.25;6112080;19;20086;-72
2023/07/15 03:00:09;;;;;;;5.40;2.80;;;;;;;20.13;78.40;100485.91;6101878;19;20010;-73
2023/07/15 03:02:17;;;;;;;8.20;3.03;;;;;;;20.06;79.00;100494.56;6093916;19;20015;-74
2023/07/15 03:04:22;;;;;;;6.97;3.10;;;;;;;20.01;78.89;100492.31;6100548;19;20018;-73
2023/07/15 03:06:33;;;;;;;6.50;3.20;;;;;;;19.94;79.51;100499.97;6098417;19;20091;-73
2023/07/15 03:08:41;;;;;;;4.90;2.60;;;;;;;19.88;79.40;100496.97;6101671;19;20010;-73
2023/07/15 03:10:43;;;;;;;5.93;2.83;;;;;;;19.92;79.29;100501.09;6111552;19;20038;-74
2023/07/15 03:12:50;;;;;;;6.13;2.85;;;;;;;19.90;79.39;100498.53;6111293;19;20005;-73
2023/07/15 03:14:55;;;;;;;7.47;2.83;;;;;;;19.97;79.14;100501.53;6110980;19;20018;-74
2023/07/15 03:17:03;;;;;;;6.03;3.15;;;;;;;19.99;79.33;100499.59;6110009;19;20094;-72
2023/07/15 03:19:11;;;;;;;7.20;3.35;;;;;;;19.99;79.21;100490.75;6111508;19;20418;-74
2023/07/15 03:21:16;;;;;;;4.45;2.83;;;;;;;19.94;79.64;100499.97;6104958;19;20503;-74
2023/07/15 03:23:21;;;;;;;7.15;3.13;;;;;;;19.97;79.79;100500.69;6111960;19;20042;-74
2023/07/15 03:25:26;;;;;;;5.03;3.20;;;;;;;19.94;79.81;100507.13;6111213;19;20401;-73
2023/07/15 03:27:31;;;;;;;5.35;2.90;;;;;;;19.91;80.32;100507.41;6111387;19;20433;-73
2023/07/15 03:29:36;;;;;;;6.95;3.15;;;;;;;19.91;79.74;100494.06;6111175;19;20007;-73
2023/07/15 03:31:41;;;;;;;6.40;3.20;;;;;;;19.95;80.12;100503.47;6111482;19;20015;-72
2023/07/15 03:33:46;;;;;;;5.70;3.65;;;;;;;19.92;80.08;100501.91;6116743;19;20015;-73
2023/07/15 03:35:54;;;;;;;6.97;3.70;;;;;;;19.91;80.34;100507.41;6116913;19;20011;-72
2023/07/15 03:37:59;;;;;;;5.07;2.78;;;;;;;19.94;79.79;100507.13;6117285;19;20058;-71
2023/07/15 03:40:08;;;;;;;9.07;3.72;;;;;;;19.95;79.72;100506.16;6117922;19;20007;-71
2023/07/15 03:42:13;;;;;;;6.05;3.00;;;;;;;19.95;79.63;100504.31;6115652;19;20500;-73
2023/07/15 03:44:18;;;;;;;6.68;3.13;;;;;;;19.93;80.11;100505.44;6116594;19;20011;-71
2023/07/15 03:46:21;;;;;;;7.18;3.15;;;;;;;19.93;80.34;100506.28;6119288;19;20482;-72
2023/07/15 03:48:29;;;;;;;7.50;3.70;;;;;;;19.94;80.47;100504.47;6115948;19;20062;-71
2023/07/15 03:50:35;;;;;;;6.38;3.30;;;;;;;19.93;80.16;100500.97;6120304;19;20027;-71
2023/07/15 03:52:43;;;;;;;7.68;3.08;;;;;;;19.95;80.61;100508.81;6118667;19;20355;-71
2023/07/15 03:54:48;;;;;;;6.60;3.10;;;;;;;19.98;80.47;100511.22;6119107;19;20019;-71
2023/07/15 03:56:53;;;;;;;6.57;3.38;;;;;;;19.95;80.60;100514.97;6119247;19;20472;-71
2023/07/15 03:58:56;;;;;;;5.57;2.88;;;;;;;19.95;81.09;100509.66;6116334;19;20078;-72
2023/07/15 04:01:01;;;;;;;8.98;3.13;;;;;;;19.99;81.09;100512.09;6118059;19;20022;-72
2023/07/15 04:03:10;;;;;;;7.47;3.22;;;;;;;20.02;81.34;100509.16;6117190;19;20010;-72
2023/07/15 04:05:15;;;;;;;7.80;3.65;;;;;;;20.06;81.45;100515.91;6115792;19;20002;-71
2023/07/15 04:07:21;;;;;;;5.78;3.60;;;;;;;20.08;80.99;100519.28;6103626;19;20498;-73
2023/07/15 04:09:29;;;;;;;8.70;3.00;;;;;;;20.12;80.43;100524.22;6116068;19;20038;-73
2023/07/15 04:11:35;;;;;;;8.10;3.45;;;;;;;20.12;80.37;100516.22;6114805;19;20047;-72
2023/07/15 04:13:40;;;;;;;6.10;3.00;;;;;;;20.15;80.47;100510.63;6115583;19;20053;-72
2023/07/15 04:15:46;;;;;;;7.63;3.08;;;;;;;20.15;80.78;100509.78;6115430;19;20357;-72
2023/07/15 04:17:51;;;;;;;6.15;2.78;;;;;;;20.17;81.39;100518.50;6115127;19;20126;-72
2023/07/15 04:19:57;;;;;;;7.10;2.70;;;;;;;20.15;81.83;100536.47;6104861;19;20032;-71
2023/07/15 04:22:06;;;;;;;6.18;3.25;;;;;;;20.15;81.56;100534.63;6116351;19;20451;-71
2023/07/15 04:24:12;;;;;;;8.38;3.65;;;;;;;20.16;81.68;100544.31;6103500;19;20011;-72
2023/07/15 04:26:25;;;;;;;6.95;3.60;;;;;;;20.16;82.63;100538.97;6112291;19;20014;-71
2023/07/15 04:28:28;;;;;;;8.57;3.13;;;;;;;20.14;83.31;100540.09;6113770;19;20109;-72
2023/07/15 04:30:35;;;;;;;10.20;3.25;;;;;;;20.10;82.33;100547.53;6115667;19;20094;-71
2023/07/15 04:32:41;;;;;;;4.85;2.63;;;;;;;20.09;80.92;100553.84;6100216;19;20369;-73
2023/07/15 04:34:50;;;;;;;4.50;2.17;;;;;;;20.02;76.52;100549.16;6115937;19;20034;-73
2023/07/15 04:36:55;;;;;;;3.53;1.80;;;;;;;19.93;71.97;100543.63;6115860;19;20010;-74
2023/07/15 04:39:03;;;;;;;2.13;1.58;;;;;;;19.90;72.29;100551.03;6113768;19;20114;-72
2023/07/15 04:41:08;;;;;;;4.70;1.55;;;;;;;19.94;72.37;100549.81;6114827;19;20038;-72
2023/07/15 04:43:16;;;;;;;6.10;1.80;;;;;;;19.88;72.36;100543.16;6104511;19;20475;-74
2023/07/15 04:45:21;;;;;;;4.25;1.50;;;;;;;19.89;72.13;100552.84;6114412;19;20019;-74
2023/07/15 04:47:27;;;;;;;3.83;1.75;;;;;;;19.84;72.16;100547.06;6114675;19;20011;-73
2023/07/15 04:49:32;;;;;;;6.30;2.15;;;;;;;19.80;72.27;100550.97;6114747;19;20026;-71
2023/07/15 04:51:37;;;;;;;7.68;2.25;;;;;;;19.79;72.36;100543.09;6115236;19;20583;-72
2023/07/15 04:53:43;;;;;;;3.67;1.88;;;;;;;19.78;72.55;100544.91;6114946;19;20027;-71
2023/07/15 04:55:49;;;;;;;4.75;1.90;;;;;;;19.76;72.65;100538.88;6114969;19;20333;-72
2023/07/15 04:57:54;;;;;;;4.68;1.95;;;;;;;19.73;72.90;100552.44;6115829;19;20116;-72
2023/07/15 05:00:04;;;;;;;6.53;2.00;;;;;;;19.74;73.46;100552.31;6113776;19;20091;-72
2023/07/15 05:02:10;;;;;;;7.35;2.00;;;;;;;19.78;73.24;100546.75;6114980;19;20029;-72
2023/07/15 05:04:16;;;;;;;3.05;1.80;;;;;;;19.71;73.66;100541.91;6107080;19;20061;-72
2023/07/15 05:06:21;;;;;;;3.83;2.00;;;;;;;19.76;74.04;100536.19;6110329;19;20046;-75
2023/07/15 05:08:27;;;;;;;8.45;2.53;;;;;;;19.78;74.20;100544.09;6114533;19;20471;-73
2023/07/15 05:10:33;;;;;;;6.15;2.00;;;;;;;19.80;74.31;100548.31;6114281;19;20289;-73
2023/07/15 05:12:38;;;;;;;7.25;2.35;;;;;;;19.79;74.97;100553.75;6100398;19;20018;-73
2023/07/15 05:14:43;;;;;;;4.10;2.00;;;;;;;19.82;74.56;100556.16;6103233;19;20023;-73
2023/07/15 05:16:51;;;;;;;6.93;2.25;;;;;;;19.77;75.11;100548.53;6102416;19;20018;-73
2023/07/15 05:18:56;;;;;;;10.18;2.92;;;;;;;19.87;74.85;100553.97;6115080;19;20047;-73
2023/07/15 05:21:02;;;;;;;6.15;2.35;;;;;;;19.88;74.76;100552.97;6116214;19;20003;-74
2023/07/15 05:23:08;;;;;;;6.50;2.67;;;;;;;19.92;74.60;100555.25;6115551;19;20078;-74
2023/07/15 05:25:15;;;;;;;6.07;2.15;;;;;;;19.89;75.21;100549.34;6110801;19;20011;-74
2023/07/15 05:27:20;;;;;;;5.65;2.28;;;;;;;19.94;74.32;100555.97;6113338;19;20086;-73
2023/07/15 05:29:26;;;;;;;5.53;2.25;;;;;;;19.94;73.85;100552.47;6104356;19;20451;-73
2023/07/15 05:31:31;;;;;;;7.03;2.15;;;;;;;20.01;73.63;100552.78;6114020;19;20014;-73
2023/07/15 05:33:44;;;;;;;3.63;1.52;;;;;;;19.99;72.39;100546.75;6104167;19;20007;-73
2023/07/15 05:35:49;;;;;;;4.43;1.75;;;;;;;20.02;70.66;100552.66;6114614;19;20003;-71
2023/07/15 05:37:54;;;;;;;7.65;2.53;;;;;;;19.99;69.94;100544.09;6113254;19;20011;-71
2023/07/15 05:40:09;;;;;;;5.10;2.00;;;;;;;20.03;70.13;100551.69;6113329;19;20020;-71
2023/07/15 05:42:15;;;;;;;6.13;2.30;;;;;;;20.09;70.63;100555.66;6107709;19;20032;-70
2023/07/15 05:44:21;;;;;;;7.88;2.67;;;;;;;20.07;69.98;100558.47;6109326;19;20035;-72
2023/07/15 05:46:29;;;;;;;6.07;2.30;;;;;;;20.06;70.06;100562.09;6102030;19;20027;-71
2023/07/15 05:48:34;;;;;;;8.00;3.33;;;;;;;20.03;69.75;100556.16;6113303;19;20010;-72
2023/07/15 05:50:43;;;;;;;10.95;2.40;;;;;;;20.06;69.97;100555.91;6113405;19;20046;-73
2023/07/15 05:52:48;;;;;;;7.32;2.40;;;;;;;20.05;70.37;100563.06;6101053;19;20023;-72
2023/07/15 05:54:53;;;;;;;8.27;2.35;;;;;;;20.03;70.58;100564.16;6109140;19;20021;-73
2023/07/15 05:56:58;;;;;;;6.22;2.78;;;;;;;20.01;71.19;100561.66;6113580;19;20039;-73
2023/07/15 05:59:03;;;;;;;7.10;2.65;;;;;;;20.05;70.90;100564.91;6102391;19;20062;-73
2023/07/15 06:01:11;;;;;;;4.72;2.03;;;;;;;20.09;71.65;100569.84;6112597;19;20502;-72
2023/07/15 06:03:16;;;;;;;5.65;1.95;;;;;;;20.18;71.19;100571.72;6113888;19;20406;-74
2023/07/15 06:05:21;;;;;;;7.53;2.42;;;;;;;20.21;71.56;100573.28;6105061;19;20054;-73
2023/07/15 06:07:29;;;;;;;5.55;2.05;;;;;;;20.27;71.88;100567.41;6103613;19;20019;-73
2023/07/15 06:09:34;;;;;;;5.78;2.45;;;;;;;20.33;71.55;100568.75;6113852;19;20010;-73
2023/07/15 06:11:39;;;;;;;8.75;2.40;;;;;;;20.43;71.72;100560.75;6102321;19;20459;-73
2023/07/15 06:13:42;;;;;;;7.40;2.55;;;;;;;20.70;72.01;100555.72;6113362;19;20018;-73
2023/07/15 06:15:49;;;;;;;6.35;2.25;;;;;;;20.84;72.02;100557.19;6100315;19;20013;-72
2023/07/15 06:17:55;;;;;;;4.50;2.20;;;;;;;20.93;71.95;100564.41;6113450;19;20018;-76
2023/07/15 06:20:01;;;;;;;6.53;2.17;;;;;;;21.38;71.32;100555.06;6112021;19;20527;-74
2023/07/15 06:22:07;;;;;;;5.55;2.03;;;;;;;21.64;70.86;100558.91;6104259;19;20022;-73
2023/07/15 06:24:15;;;;;;;5.30;2.20;;;;;;;21.55;69.82;100564.25;6111828;19;20092;-73
2023/07/15 06:26:20;;;;;;;5.90;2.50;;;;;;;21.55;70.05;100556.22;6110776;19;20038;-73
2023/07/15 06:28:25;;;;;;;4.63;1.67;;;;;;;21.46;69.27;100566.78;6110137;19;20010;-72
2023/07/15 06:30:33;;;;;;;3.50;2.00;;;;;;;21.52;69.70;100564.53;6111090;19;20018;-73
2023/07/15 06:32:39;;;;;;;3.90;1.88;;;;;;;21.64;68.93;100563.41;6112962;19;20010;-73
2023/07/15 06:34:47;;;;;;;6.63;2.50;;;;;;;21.61;68.04;100571.72;6101947;19;20006;-75
2023/07/15 06:36:52;;;;;;;6.20;2.25;;;;;;;21.77;68.08;100558.59;6111343;19;20050;-74
2023/07/15 06:39:00;;;;;;;4.75;2.13;;;;;;;21.73;66.48;100569.75;6106309;19;20007;-71
2023/07/15 06:41:07;;;;;;;7.15;2.10;;;;;;;22.53;64.47;100568.50;6112810;19;20039;-71
2023/07/15 06:43:13;;;;;;;6.03;2.00;;;;;;;22.29;62.91;100564.50;6111570;19;20022;-73
2023/07/15 06:45:22;;;;;;;6.03;2.15;;;;;;;22.45;62.60;100568.41;6111461;19;20363;-72
2023/07/15 06:47:33;;;;;;;5.95;1.63;;;;;;;22.21;62.36;100571.56;6111279;19;20460;-71
2023/07/15 06:49:40;;;;;;;4.53;2.40;;;;;;;21.78;63.37;100571.03;6112652;19;20010;-72
2023/07/15 06:51:48;;;;;;;4.88;2.00;;;;;;;21.63;63.43;100570.59;6110099;19;20037;-72
2023/07/15 06:53:53;;;;;;;4.10;1.88;;;;;;;21.84;64.06;100564.25;6111789;19;20110;-73
2023/07/15 06:56:00;;;;;;;5.18;2.20;;;;;;;21.90;63.92;100572.53;6111483;19;20102;-72
2023/07/15 06:58:26;;;;;;;5.40;1.55;;;;;;;21.78;64.04;100571.03;6108821;19;20094;-72
2023/07/15 07:00:31;;;;;;;3.35;1.73;;;;;;;21.83;63.25;100571.44;6111703;19;20515;-72
2023/07/15 07:02:39;;;;;;;2.42;1.40;;;;;;;22.13;62.57;100574.91;6111709;19;20046;-73
2023/07/15 07:04:47;;;;;;;4.15;1.90;;;;;;;22.44;61.67;100575.59;6111165;19;20022;-72
2023/07/15 07:06:52;;;;;;;3.83;1.85;;;;;;;22.48;61.20;100578.81;6111021;19;20014;-71
2023/07/15 07:08:55;;;;;;;2.05;1.33;;;;;;;22.84;61.24;100568.25;6111461;19;20459;-71
2023/07/15 07:11:02;;;;;;;5.90;1.60;;;;;;;23.17;60.25;100574.84;6111524;19;20014;-71
2023/07/15 07:13:07;;;;;;;3.20;1.52;;;;;;;22.91;60.34;100569.34;6109255;19;20021;-71
2023/07/15 07:15:16;;;;;;;3.15;1.67;;;;;;;23.73;57.91;100568.44;6109192;19;20013;-73
2023/07/15 07:17:22;;;;;;;5.18;2.00;;;;;;;23.96;56.88;100560.75;6110853;19;20007;-73
2023/07/15 07:19:31;;;;;;;6.30;1.90;;;;;;;23.84;56.35;100562.81;6111159;19;20011;-72
2023/07/15 07:21:38;;;;;;;5.50;1.83;;;;;;;23.48;57.60;100566.47;6112211;19;20484;-71
2023/07/15 07:23:44;;;;;;;4.07;1.67;;;;;;;23.36;57.54;100572.06;6112193;19;20029;-71
2023/07/15 07:25:50;;;;;;;3.63;1.77;;;;;;;23.20;56.55;100578.09;6111709;19;20035;-72
2023/07/15 07:27:55;;;;;;;3.78;1.70;;;;;;;23.35;56.74;100574.91;6110994;19;20027;-73
2023/07/15 07:30:02;;;;;;;4.78;1.70;;;;;;;23.07;55.93;100582.13;6108583;19;20102;-72
2023/07/15 07:32:10;;;;;;;3.92;1.67;;;;;;;23.02;55.89;100573.69;6101795;19;20015;-72
2023/07/15 07:34:15;;;;;;;5.57;2.28;;;;;;;23.53;54.29;100574.91;6101783;19;20022;-71
2023/07/15 07:36:20;;;;;;;4.40;1.90;;;;;;;24.14;53.52;100571.44;6095952;19;20054;-72
2023/07/15 07:38:25;;;;;;;5.88;2.17;;;;;;;24.17;52.40;100572.97;6097632;19;20022;-72
2023/07/15 07:40:36;;;;;;;3.55;1.75;;;;;;;23.31;53.62;100573.53;6108252;19;20433;-71
2023/07/15 07:42:41;;;;;;;3.63;1.52;;;;;;;23.81;53.39;100571.19;6110542;19;20022;-71
2023/07/15 07:44:48;;;;;;;5.10;1.83;;;;;;;23.87;52.99;100585.81;6111772;19;20416;-72
2023/07/15 07:46:55;;;;;;;3.30;1.70;;;;;;;23.49;51.55;100590.47;6110654;19;20054;-72
2023/07/15 07:49:04;;;;;;;3.45;1.70;;;;;;;23.71;53.62;100582.97;6109196;19;20102;-71
2023/07/15 07:51:10;;;;;;;5.57;2.30;;;;;;;23.61;52.04;100591.91;6107824;19;20034;-73
2023/07/15 07:53:15;;;;;;;3.72;1.67;;;;;;;23.86;52.52;100584.97;6105776;19;20522;-73
2023/07/15 07:55:20;;;;;;;3.97;2.00;;;;;;;23.94;52.28;100578.84;6110394;19;20027;-73
2023/07/15 07:57:25;;;;;;;3.90;1.77;;;;;;;24.36;52.13;100583.50;6110295;19;19999;-73
2023/07/15 07:59:30;;;;;;;4.50;2.00;;;;;;;23.82;53.03;100591.66;6110290;19;20094;-73
2023/07/15 08:01:36;;;;;;;2.85;1.70;;;;;;;23.73;52.71;100592.59;6110428;19;20002;-72
2023/07/15 08:03:41;;;;;;;4.18;1.95;;;;;;;23.63;53.50;100597.16;6098516;19;20399;-74
2023/07/15 08:05:50;;;;;;;7.72;1.92;;;;;;;24.71;52.13;100589.78;6108329;19;20014;-72
2023/07/15 08:07:57;;;;;;;3.30;1.70;;;;;;;24.67;51.01;100591.09;6107815;19;20466;-71
2023/07/15 08:10:02;;;;;;;4.13;2.20;;;;;;;24.59;52.27;100591.88;6109819;19;20375;-72
2023/07/15 08:12:10;;;;;;;2.58;1.40;;;;;;;24.53;52.66;100590.69;6109192;19;20496;-71
2023/07/15 08:14:15;;;;;;;5.18;1.85;;;;;;;24.40;52.79;100592.09;6105745;19;20468;-73
2023/07/15 08:16:34;;;;;;;6.38;1.90;;;;;;;24.69;52.27;100595.31;6098018;19;20046;-72
2023/07/15 08:18:39;;;;;;;4.75;2.22;;;;;;;24.32;52.19;100600.94;6113683;19;20081;-73
2023/07/15 08:20:45;;;;;;;4.00;1.70;;;;;;;24.29;51.78;100604.78;6099351;19;20480;-73
2023/07/15 08:22:53;;;;;;;5.10;1.98;;;;;;;24.67;52.11;100613.47;6102739;19;20009;-72
2023/07/15 08:24:58;;;;;;;3.78;1.58;;;;;;;24.70;50.53;100606.94;6115779;19;20531;-71
2023/07/15 08:27:03;;;;;;;5.55;2.10;;;;;;;24.91;49.87;100602.00;6115161;19;20014;-71
2023/07/15 08:29:08;;;;;;;5.03;2.08;;;;;;;24.64;50.07;100608.38;6115515;19;20351;-73
2023/07/15 08:31:11;;;;;;;3.67;1.90;;;;;;;24.18;51.30;100604.19;6115438;19;20021;-71
2023/07/15 08:33:16;;;;;;;3.60;1.75;;;;;;;24.71;49.71;100608.59;6115356;19;20088;-73
2023/07/15 08:35:22;;;;;;;4.20;1.90;;;;;;;24.65;49.91;100617.31;6114560;19;20014;-72
2023/07/15 08:37:28;;;;;;;3.45;1.60;;;;;;;25.13;49.15;100602.41;6115851;19;20421;-72
2023/07/15 08:39:35;;;;;;;3.13;1.77;;;;;;;25.23;48.73;100605.84;6115263;19;20006;-72
2023/07/15 08:41:42;;;;;;;2.65;1.50;;;;;;;25.07;49.34;100619.19;6114621;19;20463;-72
2023/07/15 08:43:48;;;;;;;4.43;1.80;;;;;;;24.93;49.55;100610.72;6114994;19;20036;-71
2023/07/15 08:46:00;;;;;;;1.55;1.40;;;;;;;24.48;49.84;100619.88;6114221;19;20094;-73
2023/07/15 08:48:07;;;;;;;4.13;1.75;;;;;;;24.60;51.09;100619.63;6103207;19;20018;-71
2023/07/15 08:50:17;;;;;;;3.30;1.67;;;;;;;24.70;50.51;100615.81;6113261;19;20019;-73
2023/07/15 08:52:24;;;;;;;6.63;2.25;;;;;;;24.31;50.14;100612.69;6110806;19;20054;-72
2023/07/15 08:54:33;;;;;;;5.05;1.90;;;;;;;24.31;50.05;100620.75;6114766;19;20373;-72
2023/07/15 08:56:38;;;;;;;4.53;1.73;;;;;;;24.34;50.48;100612.38;6113659;19;20015;-73
2023/07/15 08:58:46;;;;;;;3.35;1.90;;;;;;;24.34;49.59;100625.78;6112974;19;20018;-73
2023/07/15 09:00:52;;;;;;;4.75;2.03;;;;;;;24.31;50.65;100631.47;6110844;19;20062;-71
2023/07/15 09:02:58;;;;;;;6.05;1.85;;;;;;;24.16;51.05;100631.19;6103722;19;20026;-72
2023/07/15 09:05:03;;;;;;;2.08;1.42;;;;;;;24.10;50.50;100635.34;6108147;19;20010;-72
2023/07/15 09:07:11;;;;;;;3.53;1.70;;;;;;;23.92;50.76;100634.50;6112753;19;20026;-72
2023/07/15 09:09:16;;;;;;;4.03;2.05;;;;;;;24.30;51.25;100627.09;6106484;19;20074;-71
2023/07/15 09:11:20;;;;;;;4.55;2.17;;;;;;;24.20;50.96;100634.44;6114394;19;20011;-72
2023/07/15 09:13:31;;;;;;;2.75;1.45;;;;;;;24.36;49.83;100642.59;6113986;19;20067;-71
2023/07/15 09:15:41;;;;;;;4.57;1.85;;;;;;;24.51;51.41;100637.50;6114310;19;20051;-72
2023/07/15 09:17:53;;;;;;;2.67;1.60;;;;;;;24.64;51.12;100637.09;6117055;19;20464;-72
2023/07/15 09:20:00;;;;;;;3.13;1.70;;;;;;;24.78;50.92;100644.59;6115999;19;20019;-72
2023/07/15 09:22:10;;;;;;;5.90;2.05;;;;;;;24.34;51.28;100639.22;6104417;19;20027;-72
2023/07/15 09:24:15;;;;;;;2.63;1.52;;;;;;;24.06;52.93;100641.16;6111275;19;20472;-71
2023/07/15 09:26:20;;;;;;;5.07;2.38;;;;;;;24.46;52.31;100637.16;6102720;19;20007;-72
2023/07/15 09:28:28;;;;;;;3.85;1.60;;;;;;;23.90;54.38;100641.88;6113021;19;20042;-73
2023/07/15 09:30:33;;;;;;;4.57;1.80;;;;;;;23.83;52.80;100646.19;6110501;19;20030;-73
2023/07/15 09:32:42;;;;;;;3.97;1.80;;;;;;;24.20;51.23;100639.78;6114114;19;20014;-73
2023/07/15 09:34:53;;;;;;;4.10;2.00;;;;;;;25.03;50.60;100642.84;6107581;19;20022;-74
2023/07/15 09:36:58;;;;;;;2.40;1.40;;;;;;;24.81;49.81;100646.94;6102473;19;20022;-73
2023/07/15 09:39:13;;;;;;;4.55;1.80;;;;;;;25.02;50.34;100634.97;6113853;19;20483;-73
2023/07/15 09:41:22;;;;;;;4.22;1.90;;;;;;;25.83;47.38;100637.09;6103815;19;20006;-73
2023/07/15 09:43:47;;;;;;;5.00;1.65;;;;;;;26.19;46.73;100642.16;6113268;19;20011;-72
2023/07/15 09:45:54;;;;;;;3.80;1.95;;;;;;;25.49;47.86;100650.59;6104665;19;20026;-73
2023/07/15 09:47:59;;;;;;;3.30;1.60;;;;;;;24.97;49.53;100646.19;6115115;19;20570;-74
2023/07/15 09:50:04;;;;;;;5.70;1.80;;;;;;;25.08;49.21;100647.75;6112687;19;20011;-73